Skip to main content

NOAA/GLERL Met Station at Michigan City, IN

Previous 5 days (top of hour only)
See also Previous 3 Hours (2 minute increments)
Jump down to Data
Switch to [English][Metric]
Zoom: Click and drag, Pan: shift-click and drag, Unzoom: double-click, Unzoom All




Note: Speed = mean wind during 2-minute period at top of hour,
Gust = max wind during 2-minute period at top of hour,
Peak = max wind during entire hour.
• See also 5-day windrose plot


NOAA/GLERL Met Station at Michigan City, IN

Previous 5 days (top of hour only)
See also Previous 3 Hours (2 minute increments)
Jump up to Graphs
Switch to [English][Metric]
                  Wind  Wind  Wind   Air   Dew   Rel     Sta   PAR
                   Spd   Gst   Dir  Temp    Pt   Hum    Pres uE/m2/
YYYY-MM-DD   CDT   kts   kts   deg     F     F     %   in Hg   sec
2017-04-30 03:00   1.9   3.1    73  45.3  42.8  90.7    0.00     0
2017-04-30 02:00  12.1  15.4    94  45.1  41.9  88.1    0.00     0
2017-04-30 01:00  12.2  17.3    74  45.5  40.9  83.9    0.00     0
2017-04-30 00:00  10.7  14.2    59  46.8  41.2  80.7    0.00     0
2017-04-29 23:00   9.9  13.0    69  47.7  44.0  87.0    0.00     0
2017-04-29 22:00  24.1  32.1    61  47.5  46.0  94.4    0.00     0
2017-04-29 21:00  23.9  26.8    37  47.1  47.8 102.5    0.00     0
2017-04-29 20:00  25.1  27.6     9  45.7  46.1 101.8    0.00     0
2017-04-29 19:00  26.8  29.4    16  44.4  44.6 100.6    0.00     0
2017-04-29 18:00  21.8  23.7    19  44.1  44.0  99.7    0.00     0
2017-04-29 17:00  22.0  23.7    14  42.6  42.4  99.0    0.00     0
2017-04-29 16:00  23.1  26.2    27  42.3  42.6 101.3    0.00     0
2017-04-29 15:00  23.5  25.3    13  41.9  39.9  92.5    0.00     0
2017-04-29 14:00  31.1  33.4    12  41.9  40.7  95.3    0.00     0
2017-04-29 13:00  20.8  23.3     5  43.2  40.4  90.0    0.00     0
2017-04-29 12:00  20.6  23.1    21  44.2  39.3  82.6    0.00     0
2017-04-29 11:00  22.2  24.3    14  44.1  38.9  81.7    0.00     0
2017-04-29 10:00  24.5  26.8    10  43.2  38.9  84.7    0.00     0
2017-04-29 09:00  21.0  23.1     8  43.9  41.3  90.5    0.00     0
2017-04-29 08:00  20.0  22.4    11  44.2  42.4  93.1    0.00     0
2017-04-29 07:00  21.4  23.7    12  44.2  42.6  93.7    0.00     0
2017-04-29 06:00  21.2  23.9    14  44.1  43.2  96.6    0.00     0
2017-04-29 05:00  23.1  25.3    10  44.4  41.8  90.4    0.00     0
2017-04-29 04:00  23.9  27.4    11  45.5  41.2  84.6    0.00     0
2017-04-29 03:00  18.5  20.2    16  45.3  40.7  83.8    0.00     0
2017-04-29 02:00  17.7  18.9    26  45.7  39.5  78.9    0.00     0
2017-04-29 01:00  19.2  21.8    18  44.4  39.5  82.7    0.00     0
2017-04-29 00:00  12.4  14.0    31  46.2  43.4  89.8    0.00     0
2017-04-28 23:00   8.2   8.7    22  47.1  46.1  96.3    0.00     0
2017-04-28 22:00   6.6   7.2    27  47.3  46.6  97.4    0.00     0
2017-04-28 21:00   5.6   6.0    27  48.0  47.5  98.0    0.00     0
2017-04-28 20:00   3.5   4.5   167  57.9  49.8  74.1    0.00     0
2017-04-28 19:00   6.8   7.6    45  47.1  46.2  96.7    0.00     0
2017-04-28 18:00   7.2   7.8    12  47.1  44.1  89.1    0.00     0
2017-04-28 17:00  10.9  15.2   139  61.0  44.3  53.7    0.00     0
2017-04-28 16:00   7.0   8.7   121  59.4  43.3  54.9    0.00     0
2017-04-28 15:00   7.4   8.6    94  58.1  43.3  57.5    0.00     0
2017-04-28 14:00   6.2   8.2    95  56.8  43.1  59.7    0.00     0
2017-04-28 13:00   6.4   9.3   159  55.8  43.9  64.1    0.00     0
2017-04-28 12:00  11.3  12.8   157  55.8  42.8  61.4    0.00     0
2017-04-28 11:00   5.6   6.2    25  46.2  44.5  93.5    0.00     0
2017-04-28 10:00   8.6   9.1    19  46.2  44.6  94.0    0.00     0
2017-04-28 09:00   2.1   3.1   230  49.8  42.7  76.1    0.00     0
2017-04-28 08:00   1.0   1.4   209  47.1  42.1  82.5    0.00     0
2017-04-28 07:00   2.1   2.3   217  45.5  43.2  91.6    0.00     0
2017-04-28 05:00   2.9   3.1    54  44.8  42.6  91.9    0.00     0
2017-04-28 04:00   1.9   2.9   274  44.6  40.9  86.6    0.00     0
2017-04-28 03:00   1.2   2.5   156  44.2  39.8  84.1    0.00     0
2017-04-28 02:00   2.1   2.3   171  44.8  38.2  77.4    0.00     0
2017-04-28 01:00   8.4   9.1   182  45.9  38.2  74.4    0.00     0
2017-04-28 00:00   7.6   8.6   196  46.0  37.7  72.3    0.00     0
2017-04-27 23:00  13.0  14.6   210  47.1  37.8  69.7    0.00     0
2017-04-27 22:00  19.8  21.8   235  46.8  39.3  75.0    0.00     0
2017-04-27 21:00  23.3  25.5   228  47.8  38.6  70.0    0.00     0
2017-04-27 20:00  17.5  20.0   207  47.7  38.3  69.6    0.00     0
2017-04-27 19:00  16.5  20.0   217  47.7  39.2  72.2    0.00     0
2017-04-27 18:00  16.7  19.4   218  47.5  39.3  72.9    0.00     0
2017-04-27 17:00  22.4  24.9   213  47.3  37.7  68.9    0.00     0
2017-04-27 16:00  20.6  24.5   212  46.6  37.8  71.2    0.00     0
2017-04-27 15:00  22.2  24.7   204  45.9  38.1  74.0    0.00     0
2017-04-27 14:00  17.9  19.2   214  46.2  37.6  71.6    0.00     0
2017-04-27 13:00  28.4  31.9   240  45.7  39.9  79.9    0.00     0
2017-04-27 12:00  20.4  22.6   224  48.0  40.5  75.0    0.00     0
2017-04-27 11:00  22.4  25.3   215  47.3  40.3  76.5    0.00     0
2017-04-27 10:00  23.1  25.9   217  47.5  41.9  80.7    0.00     0
2017-04-27 09:00  25.5  27.0   212  48.6  42.9  80.5    0.00     0
2017-04-27 08:00  33.2  40.0   198  54.0  47.0  77.0    0.00     0
2017-04-27 07:00  26.4  31.3   166  60.8  53.4  76.2    0.00     0
2017-04-27 06:00   9.5  13.0   160  59.7  53.7  80.1    0.00     0
2017-04-27 05:00  15.0  19.8   164  60.3  54.0  79.6    0.00     0
2017-04-27 04:00  12.6  15.6   164  60.6  57.7  90.1    0.00     0
2017-04-27 03:00  11.3  14.6   162  60.8  60.0  97.1    0.00     0
2017-04-27 02:00   7.6   8.6   153  60.6  60.4  99.1    0.00     0
2017-04-27 01:00   6.4   8.0   131  60.4  60.6 100.4    0.00     0
2017-04-27 00:00   3.7   4.9   155  59.5  60.1 102.0    0.00     0
2017-04-26 23:00   1.4   1.9   132  59.2  59.0  99.4    0.00     0
2017-04-26 22:00  13.4  14.6   227  54.9  52.4  91.4    0.00     0
2017-04-26 21:00  14.2  14.6   243  67.3  51.5  56.4    0.00     0
2017-04-26 20:00   4.3   6.0   168  73.2  51.5  45.9    0.00     0
2017-04-26 19:00  11.7  15.2   181  73.9  52.9  47.2    0.00     0
2017-04-26 18:00   8.2   8.7   230  68.2  50.6  53.0    0.00     0
2017-04-26 17:00  15.2  16.1   233  72.1  51.5  47.7    0.00     0
2017-04-26 16:00  15.7  17.1   237  64.8  50.7  59.9    0.00     0
2017-04-26 15:00  16.7  20.8   224  68.5  51.0  53.1    0.00     0
2017-04-26 14:00  23.5  26.0   224  71.4  52.2  50.1    0.00     0
2017-04-26 13:00  19.6  23.9   214  76.6  52.2  42.0    0.00     0
2017-04-26 12:00  14.4  17.7   190  74.8  56.7  52.6    0.00     0
2017-04-26 11:00  18.7  22.9   161  73.0  56.5  55.6    0.00     0
2017-04-26 10:00  12.4  15.9   160  70.3  55.3  58.4    0.00     0
2017-04-26 09:00  15.7  20.8   162  66.9  54.3  63.4    0.00     0
2017-04-26 08:00  13.0  15.9   156  65.1  54.4  67.8    0.00     0
2017-04-26 07:00  10.7  14.6   154  64.6  54.4  69.1    0.00     0
2017-04-26 06:00  13.4  15.2   144  64.2  54.3  69.9    0.00     0
2017-04-26 05:00  12.6  15.0   150  64.4  54.3  69.4    0.00     0
2017-04-26 04:00  12.4  14.2   141  65.1  54.4  67.8    0.00     0
2017-04-26 03:00  11.5  14.4   142  65.8  54.2  65.7    0.00     0
2017-04-26 02:00  11.5  13.4   145  66.7  54.2  63.6    0.00     0
2017-04-26 01:00  11.3  13.8   144  67.6  54.1  61.4    0.00     0
2017-04-26 00:00   8.2   9.5   145  68.4  53.8  59.3    0.00     0
2017-04-25 23:00   9.1  11.3   141  69.3  53.8  57.3    0.00     0
2017-04-25 22:00   9.7  11.5   224  69.6  53.4  55.9    0.00     0
2017-04-25 21:00   8.0   9.7   115  70.7  52.7  52.5    0.00     0
2017-04-25 20:00   6.6   7.6   114  72.3  52.4  49.0    0.00     0
2017-04-25 19:00  12.4  14.8   128  73.9  51.1  44.1    0.00     0